Beatty, Nevada Weather observations

Data are for observation ending at time listed.
 Day   Time    Ave.   Ave.  Ave.  Vector   Max.   Stn.    Total    Solar   Ave.  
  of    of     Air    Rel.  Wind   Wind    Wind   Baro.  Precip.   Rad.    Soil  
Year   Day     Temp.  Hum.  Speed  Dir.    Gust   Pres.                    Temp. 
2017   (PST)    F      %     mph   deg.    mph     mb.     in.     W/m2     F   
------------------------------------------------------------------------------
  20   15:50   37.8    90    6.8   214     10.0   880.2    0.03      11    44.4
  20   16:00   37.3    90    5.9   216      9.3   880.0    0.03      13    44.0
  20   16:10   36.9    90    4.0   232      8.1   879.9    0.03       8    43.6
  20   16:20   36.9    91    4.6   212      8.7   879.6    0.02       9    43.4
  20   16:30   36.9    91    3.2   218      6.7   879.2    0.02      17    43.3
  20   16:40   37.0    91    4.5   231      7.5   879.1    0.00      19    43.2
  20   16:50   36.9    92    3.1   237      5.7   879.1    0.00      20    43.2
  20   17:00   36.8    92    3.4   231      6.9   878.7    0.00      10    43.1
  20   17:10   36.9    91    3.4   234      6.9   878.6    0.00       2    43.1
  20   17:20   37.3    91    4.6   235      9.6   878.9    0.00       0    43.0
  20   17:30   37.3    92    4.0   225      6.6   879.0    0.00       0    43.0
  20   17:40   37.3    92    1.5   212      3.7   879.0    0.00       0    42.9
  20   17:50   37.4    92    0.5   195      2.0   879.0    0.01       0    42.9
  20   18:00   37.5    92    0.2   103      1.2   879.1    0.00       0    42.8
  20   18:10   37.4    92    0.8   112      2.0   879.2    0.00       0    42.8
  20   18:20   37.5    92    0.1   164      0.9   879.1    0.00       0    42.8
  20   18:30   37.4    92    2.5   221      4.2   879.2    0.00       0    42.7
  20   18:40   37.3    93    2.7   224      4.7   879.1    0.00       0    42.7
  20   18:50   37.3    93    2.7   216      4.6   879.1    0.00       0    42.7
  20   19:00   37.3    94    1.9   225      3.7   879.0    0.01       0    42.6
  20   19:10   37.3    94    1.1   228      2.1   879.0    0.00       0    42.6
  20   19:20   37.3    94    1.3   230      2.5   878.9    0.00       0    42.6
  20   19:30   37.2    94    0.8   289      2.5   879.1    0.00       0    42.6
  20   19:40   37.2    94    1.0   267      1.8   879.2    0.00       0    42.6
  20   19:50   37.5    94    0.0   247      0.7   879.2    0.00       0    42.5
  20   20:00   37.6    94    1.4    85      2.7   879.3    0.00       0    42.5
  20   20:10   37.6    94    0.9    80      2.1   879.4    0.00       0    42.5
  20   20:20   37.7    93    0.3    45      1.3   879.4    0.00       0    42.5
  20   20:30   37.8    93    0.1    10      0.8   879.4    0.00       0    42.5
  20   20:40   37.7    93    0.5   322      1.3   879.5    0.00       0    42.5
  20   20:50   37.7    93    0.5   307      1.8   879.7    0.00       0    42.5
  20   21:00   37.8    93    2.6   204      6.0   879.7    0.00       0    42.5
  20   21:10   38.0    93    3.5   219      5.9   879.6    0.00       0    42.5
  20   21:20   38.1    92    2.8   217      4.9   879.6    0.00       0    42.5
  20   21:30   38.1    92    2.7   230      5.1   879.6    0.00       0    42.5
  20   21:40   38.2    91    2.3   241      4.5   879.7    0.00       0    42.6
  20   21:50   38.4    90    1.7   228      3.7   879.8    0.00       0    42.6
  20   22:00   38.5    90    1.4   201      3.4   879.9    0.00       0    42.6
  20   22:10   38.6    90    1.0   315      2.9   879.9    0.00       0    42.6
  20   22:20   38.3    90    0.9   360      2.9   879.9    0.00       0    42.6
  20   22:30   38.0    91    1.4    79      2.6   880.1    0.00       0    42.6
  20   22:40   38.1    91    1.0    38      2.3   880.2    0.00       0    42.6
  20   22:50   38.2    91    1.6    61      3.7   880.2    0.00       0    42.6
  20   23:00   38.2    91    1.2    38      3.3   880.4    0.00       0    42.6
  20   23:10   38.2    91    1.7    72      3.7   880.5    0.00       0    42.6
  20   23:20   38.2    90    1.6    72      4.3   880.5    0.00       0    42.7
  20   23:30   38.3    90    1.5   100      2.6   880.6    0.00       0    42.7
  20   23:40   38.2    90    0.6   273      1.8   880.7    0.00       0    42.7
  20   23:50   38.3    90    0.5    56      1.7   880.8    0.00       0    42.7
  21    0:00   38.2    90    0.9    25      2.2   880.8    0.00       0    42.7
  21    0:10   38.2    90    1.1    34      2.7   880.9    0.00       0    42.7
  21    0:20   38.0    91    1.8    74      2.8   880.8    0.00       0    42.7
  21    0:30   38.0    90    0.5   345      2.0   880.8    0.00       0    42.7
  21    0:40   37.8    90    0.7    98      1.8   880.8    0.00       0    42.7
  21    0:50   37.6    90    1.2    55      3.7   880.9    0.00       0    42.7
  21    1:00   37.5    87    1.7    16      3.9   881.0    0.00       0    42.7
  21    1:10   37.0    86    1.3    31      3.2   881.2    0.00       0    42.7
  21    1:20   36.8    88    2.5    13      4.5   881.5    0.00       0    42.7
  21    1:30   37.0    88    3.1    75      6.5   881.5    0.00       0    42.7
  21    1:40   37.0    87    2.3    61      4.0   881.7    0.00       0    42.7
  21    1:50   37.0    87    1.9    57      4.9   881.8    0.00       0    42.7
  21    2:00   36.6    87    1.5    41      3.9   881.8    0.00       0    42.7
  21    2:10   35.8    89    2.1    21      4.1   882.0    0.00       0    42.7
  21    2:20   35.2    90    1.6    51      3.5   882.1    0.00       0    42.7
  21    2:30   34.7    91    1.4    49      3.7   882.3    0.00       0    42.7
  21    2:40   34.3    91    1.5    28      3.7   882.6    0.00       0    42.7
  21    2:50   34.3    92    0.9    20      3.0   882.7    0.00       0    42.7
  21    3:00   34.4    92    1.6     3      3.1   882.8    0.00       0    42.7
  21    3:10   34.2    91    1.8    18      3.7   882.9    0.00       0    42.7
  21    3:20   34.1    91    1.4     2      3.2   883.0    0.00       0    42.7
  21    3:30   33.4    92    3.2    12      5.3   883.1    0.00       0    42.7
  21    3:40   33.2    92    2.6    25      5.9   883.3    0.00       0    42.7
  21    3:50   33.6    92    1.8    47      4.7   883.4    0.00       0    42.7
  21    4:00   34.0    91    2.6    62      7.2   883.6    0.00       0    42.7
  21    4:10   34.3    90    2.8    71      6.4   883.7    0.00       0    42.7
  21    4:20   34.0    90    2.2    63      5.8   883.8    0.00       0    42.7
  21    4:30   33.8    90    1.8    41      3.7   884.0    0.00       0    42.7
  21    4:40   33.8    90    1.8    31      6.2   884.1    0.00       0    42.7
  21    4:50   33.2    90    2.9   354      4.5   884.3    0.00       0    42.7
  21    5:00   32.7    91    2.7   349      5.3   884.5    0.00       0    42.7
  21    5:10   32.7    92    3.3     5      5.8   884.7    0.00       0    42.7
  21    5:20   32.7    92    3.2    22      7.2   884.8    0.00       0    42.6
  21    5:30   33.4    91    3.9    75      8.9   885.1    0.00       0    42.6
  21    5:40   33.4    89    3.1    64      6.7   885.4    0.00       0    42.6
  21    5:50   33.2    89    1.6    43      5.2   885.7    0.00       0    42.6
  21    6:00   33.0    89    1.6    62      4.9   886.1    0.00       0    42.6
  21    6:10   33.1    89    2.3    74      6.2   886.5    0.00       0    42.6
  21    6:20   33.0    88    1.6    39      4.2   886.8    0.00       0    42.5
  21    6:30   32.9    88    1.7    49      5.0   887.0    0.00       0    42.5
  21    6:40   33.0    88    3.3    63      7.2   887.3    0.00       0    42.5
  21    6:50   32.8    88    3.4    60      7.5   887.5    0.00       0    42.5
  21    7:00   32.2    88    2.5    56      6.9   887.8    0.00       0    42.5
  21    7:10   31.7    88    2.9    23      7.1   887.9    0.00       6    42.5
  21    7:20   31.5    89    3.0    20      5.7   888.3    0.00       6    42.5
  21    7:30   31.4    90    2.3    30      5.8   888.6    0.00      11    42.5
  21    7:40   31.2    90    2.2    38      5.0   888.9    0.00      12    42.4
  21    7:50   31.5    90    3.2    69      6.4   888.9    0.00      13    42.4
  21    8:00   31.9    89    3.3    69      7.4   889.1    0.00      90    42.4
  21    8:10   32.5    87    2.9    68      6.2   889.5    0.00     161    42.4
  21    8:20   33.0    85    3.2    66      6.7   889.8    0.00     183    42.4
  21    8:30   33.3    83    3.4    67      6.4   889.8    0.00     204    42.3
  21    8:40   33.7    82    3.2    67      6.6   890.1    0.00     217    42.3
  21    8:50   34.3    83    2.4    65      8.0   890.5    0.00     246    42.3
  21    9:00   34.6    82    3.6    65      7.9   890.7    0.00     270    42.2
  21    9:10   35.2    81    3.0    59      7.0   891.2    0.00     294    42.3
  21    9:20   36.2    80    3.0    75      6.5   891.6    0.00     315    42.3
  21    9:30   36.3    79    4.4    91      7.2   891.8    0.00     330    42.2
  21    9:40   37.1    78    4.0    86      6.6   892.0    0.00     350    42.3
  21    9:50   38.1    77    3.5    82      7.0   892.3    0.00     365    42.2
  21   10:00   38.8    76    3.1    79      5.3   892.4    0.00     378    42.3
  21   10:10   39.7    75    2.6    72      4.5   892.7    0.00     397    42.3
  21   10:20   39.9    75    2.2    84      5.0   893.0    0.00     408    42.3
  21   10:30   40.5    75    1.7   121      3.3   893.0    0.00     421    42.3
  21   10:40   41.0    75    1.9   117      3.5   893.2    0.00     440    42.3
  21   10:50   42.1    72    1.2   164      3.1   893.2    0.00     457    42.3
  21   11:00   42.8    71    1.5   155      2.8   893.5    0.00     372    42.3
  21   11:10   42.8    72    2.2   168      3.8   893.5    0.00     499    42.3
  21   11:20   43.2    71    1.8   167      4.2   893.4    0.00     241    42.4
  21   11:30   42.5    72    0.9   153      3.4   893.4    0.00     325    42.4
  21   11:40   43.5    70    1.2   312      3.2   893.3    0.00     399    42.4
  21   11:50   43.9    69    1.7   291      4.5   893.4    0.00     416    42.5
  21   12:00   44.9    67    1.0    46      2.7   893.5    0.00     514    42.5
  21   12:10   46.0    64    1.4    76      4.2   893.5    0.00     379    42.6
  21   12:20   45.1    66    2.0   190      3.7   893.6    0.00     236    42.6
  21   12:30   44.5    66    1.4   145      4.2   893.5    0.00     352    42.7
  21   12:40   46.4    62    0.8    92      2.8   893.5    0.00     579    42.7
  21   12:50   48.1    59    0.8   192      3.1   893.5    0.00     279    42.8
  21   13:00   46.9    60    2.2   247      5.3   893.6    0.00     522    42.9
  21   13:10   46.5    60    1.9   192      6.4   893.5    0.00     482    42.9
  21   13:20   46.5    57    2.5   209      5.7   893.6    0.00     170    43.0
  21   13:30   46.1    58    1.9   228      4.4   893.8    0.00     301    43.0
  21   13:40   47.7    56    2.7   216      9.9   893.9    0.00     476    43.1
  21   13:50   46.9    57    4.3   213      9.6   894.0    0.00     155    43.2
  21   14:00   45.9    58    4.5   219      8.5   894.1    0.00     289    43.2
  21   14:10   47.0    56    5.4   216      9.6   894.3    0.00     408    43.3
  21   14:20   47.2    56    5.9   192     10.2   894.3    0.00     292    43.4
  21   14:30   47.0    56    6.7   210     10.7   894.6    0.00     295    43.4
  21   14:40   47.0    56    5.7   209      9.4   894.8    0.00     312    43.5
  21   14:50   47.4    55    4.2   199      9.0   895.0    0.00     251    43.6
  21   15:00   47.2    56    5.8   202     10.2   895.1    0.00     214    43.7
  21   15:10   47.1    56    5.2   197     11.0   895.2    0.00     260    43.7
  21   15:20   47.6    54    5.1   200     10.2   895.4    0.00     236    43.8
  21   15:30   47.2    54    4.9   198      8.2   895.4    0.00     203    43.9
  21   15:40   47.6    55    5.7   217      8.6   895.6    0.00     186    43.9

Return to Beatty, Nevada graphs page.


Western Regional Climate Center,wrcc@dri.edu